createdAt,value
2019-04-05T00:01:09.815Z,61.07
2019-04-05T00:03:38.991Z,54.40
2019-04-05T00:06:07.908Z,55.00
2019-04-05T00:08:36.819Z,48.17
2019-04-05T00:11:06.766Z,51.40
2019-04-05T00:13:35.631Z,60.30
2019-04-05T00:16:04.374Z,58.17
2019-04-05T00:18:33.211Z,57.53
2019-04-05T00:21:02.372Z,34.10
2019-04-05T00:23:31.175Z,48.07
2019-04-05T00:25:59.977Z,56.20
2019-04-05T00:28:28.772Z,58.50
2019-04-05T00:30:57.578Z,55.17
2019-04-05T00:33:26.394Z,50.90
2019-04-05T00:35:55.113Z,61.20
2019-04-05T00:38:23.928Z,59.83
2019-04-05T00:40:52.713Z,62.77
2019-04-05T00:43:21.568Z,60.77
2019-04-05T00:45:51.309Z,58.20
2019-04-05T00:48:20.191Z,63.57
2019-04-05T00:50:48.952Z,60.93
2019-04-05T00:53:18.149Z,60.47
2019-04-05T00:55:47.904Z,61.07
2019-04-05T00:58:16.745Z,57.07
2019-04-05T01:00:45.586Z,51.60
2019-04-05T01:03:14.457Z,54.90
2019-04-05T01:05:43.879Z,63.47
2019-04-05T01:08:13.692Z,58.63
2019-04-05T01:10:42.424Z,57.80
2019-04-05T01:13:11.437Z,54.27
2019-04-05T01:15:41.369Z,57.90
2019-04-05T01:18:10.330Z,62.17
2019-04-05T01:20:40.744Z,58.03
2019-04-05T01:23:10.575Z,45.93
2019-04-05T01:25:39.701Z,61.83
2019-04-05T01:28:08.527Z,59.73
2019-04-05T01:30:37.412Z,62.30
2019-04-05T01:33:06.150Z,62.33
2019-04-05T01:35:35.034Z,59.60
2019-04-05T01:38:03.869Z,60.53
2019-04-05T01:40:34.397Z,60.27
2019-04-05T01:43:03.242Z,57.77
2019-04-05T01:45:32.547Z,58.27
2019-04-05T01:48:01.381Z,53.73
2019-04-05T01:50:30.304Z,59.20
2019-04-05T01:52:59.324Z,56.90
2019-04-05T01:55:28.257Z,56.13
2019-04-05T01:57:57.439Z,57.03
2019-04-05T02:00:26.768Z,55.97
2019-04-05T02:02:56.337Z,55.03
2019-04-05T02:05:25.179Z,53.33
2019-04-05T02:07:54.453Z,53.87
2019-04-05T02:10:23.433Z,53.30
2019-04-05T02:12:52.176Z,56.77
2019-04-05T02:15:26.251Z,50.73
2019-04-05T02:17:55.211Z,58.57
2019-04-05T02:20:24.164Z,56.63
2019-04-05T02:22:52.972Z,54.80
2019-04-05T02:25:21.711Z,56.03
2019-04-05T02:27:51.033Z,57.43
2019-04-05T02:30:20.095Z,56.30
2019-04-05T02:32:49.193Z,57.80
2019-04-05T02:35:17.982Z,60.37
2019-04-05T02:37:46.894Z,56.47
2019-04-05T02:40:16.500Z,57.40
2019-04-05T02:42:47.553Z,55.13
2019-04-05T02:45:16.649Z,57.60
2019-04-05T02:47:51.514Z,55.20
2019-04-05T02:50:19.324Z,57.73
2019-04-05T02:52:49.451Z,56.57
2019-04-05T02:55:18.326Z,58.23
2019-04-05T02:57:47.640Z,57.33
2019-04-05T03:00:16.377Z,46.57
2019-04-05T03:02:45.809Z,53.63
2019-04-05T03:05:14.583Z,61.20
2019-04-05T03:07:43.441Z,52.07
2019-04-05T03:10:16.047Z,56.93
2019-04-05T03:12:44.786Z,59.70
2019-04-05T03:15:14.099Z,62.07
2019-04-05T03:17:42.875Z,54.13
2019-04-05T03:20:11.714Z,48.70
2019-04-05T03:22:40.637Z,60.67
2019-04-05T03:25:09.998Z,62.47
2019-04-05T03:27:39.366Z,57.40
2019-04-05T03:30:08.399Z,60.23
2019-04-05T03:32:37.162Z,67.60
2019-04-05T03:35:06.114Z,56.43
2019-04-05T03:37:34.857Z,71.47
2019-04-05T03:40:03.829Z,73.20
2019-04-05T03:42:32.655Z,74.20
2019-04-05T03:45:01.587Z,64.07
2019-04-05T03:47:30.681Z,76.90
2019-04-05T03:49:59.689Z,74.97
2019-04-05T03:52:28.943Z,63.70
2019-04-05T03:54:58.333Z,73.47
2019-04-05T03:57:27.149Z,82.20
2019-04-05T03:59:58.921Z,83.53
2019-04-05T04:02:27.761Z,66.03
2019-04-05T04:04:56.535Z,79.40
2019-04-05T04:07:25.371Z,77.73
2019-04-05T04:09:54.175Z,72.30
2019-04-05T04:12:23.070Z,83.63
2019-04-05T04:14:52.273Z,68.50
2019-04-05T04:17:21.878Z,80.73
2019-04-05T04:19:51.100Z,81.60
2019-04-05T04:22:22.338Z,77.57
2019-04-05T04:24:51.429Z,70.33
2019-04-05T04:27:20.602Z,77.53
2019-04-05T04:29:49.354Z,59.33
2019-04-05T04:32:18.569Z,83.57
2019-04-05T04:34:47.315Z,80.47
2019-04-05T04:37:16.278Z,82.23
2019-04-05T04:39:45.406Z,95.70
2019-04-05T04:42:14.701Z,77.83
2019-04-05T04:44:43.510Z,83.87
2019-04-05T04:47:25.470Z,83.63
2019-04-05T04:49:43.061Z,84.33
2019-04-05T04:52:12.662Z,87.90
2019-04-05T04:54:41.998Z,50.17
2019-04-05T04:57:10.821Z,93.23
2019-04-05T04:59:39.593Z,84.17
2019-04-05T05:02:08.880Z,77.70
2019-04-05T05:04:39.250Z,82.90
2019-04-05T05:07:08.199Z,94.63
2019-04-05T05:09:36.931Z,82.47
2019-04-05T05:12:05.930Z,91.70
2019-04-05T05:14:34.781Z,72.90
2019-04-05T05:17:04.882Z,79.90
2019-04-05T05:19:34.604Z,78.23
2019-04-05T05:22:03.421Z,56.13
2019-04-05T05:24:32.855Z,91.33
2019-04-05T05:27:03.157Z,89.40
2019-04-05T05:29:31.985Z,73.00
2019-04-05T05:32:01.019Z,88.57
2019-04-05T05:34:29.852Z,61.00
2019-04-05T05:36:58.702Z,87.23
2019-04-05T05:39:27.520Z,93.40
2019-04-05T05:41:56.789Z,88.13
2019-04-05T05:44:25.678Z,97.17
2019-04-05T05:46:54.483Z,81.30
2019-04-05T05:49:24.368Z,66.77
2019-04-05T05:51:53.814Z,87.77
2019-04-05T05:54:23.290Z,84.80
2019-04-05T05:56:52.112Z,97.00
2019-04-05T05:59:24.667Z,98.50
2019-04-05T06:01:53.807Z,93.37
2019-04-05T06:04:22.840Z,86.63
2019-04-05T06:06:52.648Z,98.90
2019-04-05T06:09:21.653Z,91.77
2019-04-05T06:11:50.392Z,94.57
2019-04-05T06:14:19.521Z,92.93
2019-04-05T06:16:48.671Z,101.40
2019-04-05T06:19:17.661Z,89.00
2019-04-05T06:21:46.825Z,93.97
2019-04-05T06:24:15.693Z,82.00
2019-04-05T06:26:45.261Z,96.43
2019-04-05T06:29:14.085Z,93.37
2019-04-05T06:31:42.828Z,91.13
2019-04-05T06:34:11.828Z,92.77
2019-04-05T06:36:40.664Z,80.93
2019-04-05T06:39:09.438Z,70.37
2019-04-05T06:41:38.261Z,96.00
2019-04-05T06:44:07.077Z,94.23
2019-04-05T06:46:35.984Z,71.17
2019-04-05T06:49:04.722Z,67.63
2019-04-05T06:51:33.548Z,72.07
2019-04-05T06:54:03.474Z,71.20
2019-04-05T06:56:32.409Z,91.00
2019-04-05T06:59:01.763Z,81.20
2019-04-05T07:01:31.433Z,61.77
2019-04-05T07:04:00.213Z,81.97
2019-04-05T07:06:29.131Z,87.87
2019-04-05T07:08:57.893Z,71.03
2019-04-05T07:11:30.086Z,80.17
2019-04-05T07:14:02.330Z,59.17
2019-04-05T07:16:32.447Z,82.10
2019-04-05T07:19:01.192Z,76.10
2019-04-05T07:21:30.010Z,80.03
2019-04-05T07:24:01.769Z,86.37
2019-04-05T07:26:31.354Z,79.83
2019-04-05T07:29:01.924Z,82.53
2019-04-05T07:31:34.879Z,80.80
2019-04-05T07:34:03.792Z,76.97
2019-04-05T07:36:32.659Z,77.97
2019-04-05T07:39:01.472Z,78.17
2019-04-05T07:41:32.069Z,74.27
2019-04-05T07:44:01.198Z,77.43
2019-04-05T07:46:31.370Z,77.50
2019-04-05T07:49:01.210Z,76.10
2019-04-05T07:51:37.925Z,69.33
2019-04-05T07:54:07.104Z,66.70
2019-04-05T07:56:37.246Z,66.13
2019-04-05T07:59:06.969Z,65.87
2019-04-05T08:01:37.029Z,67.40
2019-04-05T08:04:06.554Z,67.93
2019-04-05T08:06:38.509Z,70.27
2019-04-05T08:09:09.448Z,66.73
2019-04-05T08:11:39.719Z,62.57
2019-04-05T08:14:09.076Z,63.23
2019-04-05T08:16:42.816Z,63.43
2019-04-05T08:19:14.495Z,63.90
2019-04-05T08:21:43.441Z,66.53
2019-04-05T08:24:12.209Z,67.60
2019-04-05T08:26:41.704Z,71.23
2019-04-05T08:29:10.532Z,62.93
2019-04-05T08:31:39.390Z,71.63
2019-04-05T08:34:08.003Z,66.33
2019-04-05T08:36:36.750Z,62.73
2019-04-05T08:39:07.282Z,65.53
2019-04-05T08:41:44.018Z,64.27
2019-04-05T08:44:13.279Z,64.90
2019-04-05T08:46:48.240Z,60.43
2019-04-05T08:49:16.920Z,59.67
2019-04-05T08:51:45.571Z,59.60
2019-04-05T08:54:14.166Z,57.77
2019-04-05T08:56:42.669Z,58.27
2019-04-05T08:59:11.307Z,56.87
2019-04-05T09:01:43.259Z,65.13
2019-04-05T09:04:12.002Z,51.47
2019-04-05T09:06:40.728Z,64.47
2019-04-05T09:09:09.341Z,61.13
2019-04-05T09:11:38.361Z,61.20
2019-04-05T09:14:07.155Z,59.27
2019-04-05T09:16:36.009Z,61.87
2019-04-05T09:19:04.621Z,59.60
2019-04-05T09:21:33.635Z,60.73
2019-04-05T09:24:02.180Z,63.20
2019-04-05T09:26:30.753Z,55.63
2019-04-05T09:28:59.366Z,55.33
2019-04-05T09:31:28.569Z,56.30
2019-04-05T09:33:58.175Z,55.27
2019-04-05T09:36:29.263Z,56.53
2019-04-05T09:38:58.109Z,55.23
2019-04-05T09:41:30.859Z,53.73
2019-04-05T09:44:00.156Z,57.93
2019-04-05T09:46:29.941Z,57.00
2019-04-05T09:48:59.855Z,61.07
2019-04-05T09:51:30.327Z,62.20
2019-04-05T09:53:59.836Z,63.63
2019-04-05T09:56:32.979Z,65.70
2019-04-05T09:59:03.431Z,67.57
2019-04-05T10:01:32.671Z,76.53
2019-04-05T10:04:04.395Z,68.07
2019-04-05T10:06:34.110Z,76.03
2019-04-05T10:09:04.952Z,68.90
2019-04-05T10:11:33.793Z,73.13
2019-04-05T10:14:02.631Z,64.80
2019-04-05T10:16:37.727Z,67.10
2019-04-05T10:19:06.872Z,64.43
2019-04-05T10:21:35.942Z,65.00
2019-04-05T10:24:04.917Z,69.27
2019-04-05T10:26:36.354Z,67.40
2019-04-05T10:29:05.301Z,74.27
2019-04-05T10:31:35.256Z,73.43
2019-04-05T10:34:05.306Z,78.37
2019-04-05T10:36:34.526Z,69.00
2019-04-05T10:39:07.177Z,69.50
2019-04-05T10:41:37.442Z,71.13
2019-04-05T10:44:07.545Z,67.07
2019-04-05T10:46:36.933Z,66.27
2019-04-05T10:49:06.300Z,63.30
2019-04-05T10:51:35.774Z,63.00
2019-04-05T10:54:05.136Z,61.80
2019-04-05T10:56:34.006Z,60.20
2019-04-05T10:59:04.544Z,59.70
2019-04-05T11:01:33.688Z,59.63
2019-04-05T11:04:02.417Z,60.37
2019-04-05T11:06:32.923Z,58.73
2019-04-05T11:09:02.000Z,58.07
2019-04-05T11:11:30.736Z,56.13
2019-04-05T11:13:59.652Z,55.37
2019-04-05T11:16:29.961Z,57.20
2019-04-05T11:19:01.889Z,57.23
2019-04-05T11:21:30.838Z,58.90
2019-04-05T11:24:03.164Z,56.97
2019-04-05T11:26:32.523Z,53.53
2019-04-05T11:29:02.260Z,54.83
2019-04-05T11:31:31.619Z,56.63
2019-04-05T11:34:00.459Z,58.13
2019-04-05T11:36:29.341Z,60.33
2019-04-05T11:38:59.962Z,56.37
2019-04-05T11:41:29.513Z,64.67
2019-04-05T11:44:00.658Z,48.33
2019-04-05T11:46:30.621Z,49.30
2019-04-05T11:49:01.368Z,52.83
2019-04-05T11:51:30.074Z,53.93
2019-04-05T11:53:59.106Z,52.90
2019-04-05T11:56:28.707Z,50.97
2019-04-05T11:58:57.622Z,53.57
2019-04-05T12:01:31.733Z,54.53
2019-04-05T12:04:00.737Z,52.63
2019-04-05T12:06:35.157Z,53.70
2019-04-05T12:09:09.185Z,42.07
2019-04-05T12:11:37.952Z,51.63
2019-04-05T12:14:07.364Z,54.13
2019-04-05T12:16:36.593Z,51.87
2019-04-05T12:19:05.582Z,52.97
2019-04-05T12:21:34.786Z,52.10
2019-04-05T12:24:06.189Z,49.33
2019-04-05T12:26:35.381Z,50.53
2019-04-05T12:29:04.397Z,54.03
2019-04-05T12:31:33.122Z,49.67
2019-04-05T12:34:01.935Z,51.83
2019-04-05T12:36:31.148Z,47.97
2019-04-05T12:39:03.458Z,51.57
2019-04-05T12:41:30.463Z,50.10
2019-04-05T12:43:59.805Z,51.03
2019-04-05T12:46:29.434Z,48.10
2019-04-05T12:48:58.193Z,46.90
2019-04-05T12:51:30.260Z,45.90
2019-04-05T12:53:59.100Z,41.93
2019-04-05T12:56:27.829Z,45.90
2019-04-05T12:58:56.746Z,47.43
2019-04-05T13:01:26.958Z,44.73
2019-04-05T13:03:58.693Z,48.23
2019-04-05T13:06:29.895Z,49.97
2019-04-05T13:08:58.732Z,46.70
2019-04-05T13:11:27.604Z,50.97
2019-04-05T13:13:56.993Z,48.60
2019-04-05T13:16:26.459Z,49.37
2019-04-05T13:18:55.592Z,44.90
2019-04-05T13:21:27.742Z,47.77
2019-04-05T13:23:56.808Z,48.63
2019-04-05T13:26:26.700Z,47.57
2019-04-05T13:28:56.024Z,47.50
2019-04-05T13:31:25.435Z,46.43
2019-04-05T13:33:55.264Z,46.00
2019-04-05T13:36:26.726Z,44.40
2019-04-05T13:38:59.588Z,45.50
2019-04-05T13:41:31.394Z,44.37
2019-04-05T13:44:01.357Z,44.83
2019-04-05T13:46:29.881Z,45.67
2019-04-05T13:48:58.783Z,44.47
2019-04-05T13:51:32.246Z,25.30
2019-04-05T13:54:08.550Z,41.10
2019-04-05T13:56:39.542Z,42.47
2019-04-05T13:59:08.792Z,44.57
2019-04-05T14:01:38.089Z,45.93
2019-04-05T14:04:06.910Z,45.37
2019-04-05T14:06:35.700Z,45.50
2019-04-05T14:09:10.257Z,40.47
2019-04-05T14:11:39.466Z,37.77
2019-04-05T14:14:11.827Z,45.80
2019-04-05T14:16:42.591Z,40.10
2019-04-05T14:19:09.877Z,39.70
2019-04-05T14:21:41.188Z,45.30
2019-04-05T14:24:09.464Z,39.47
2019-04-05T14:26:38.400Z,46.87
2019-04-05T14:29:07.203Z,43.97
2019-04-05T14:31:36.042Z,45.20
2019-04-05T14:34:04.905Z,45.53
2019-04-05T14:36:34.227Z,45.23
2019-04-05T14:39:03.647Z,42.77
2019-04-05T14:41:32.466Z,42.83
2019-04-05T14:44:01.306Z,47.23
2019-04-05T14:46:31.476Z,48.43
2019-04-05T14:49:01.217Z,47.27
2019-04-05T14:51:30.059Z,49.27
2019-04-05T14:53:59.592Z,49.03
2019-04-05T14:56:29.661Z,47.43
2019-04-05T14:58:58.658Z,41.43
2019-04-05T15:01:28.652Z,45.87
2019-04-05T15:03:57.383Z,50.30
2019-04-05T15:06:28.255Z,42.17
2019-04-05T15:08:57.560Z,45.80
2019-04-05T15:11:28.585Z,53.43
2019-04-05T15:13:56.824Z,51.90
2019-04-05T15:16:25.564Z,48.93
2019-04-05T15:18:54.752Z,55.07
2019-04-05T15:21:25.423Z,47.23
2019-04-05T15:23:54.132Z,52.50
2019-04-05T15:26:23.064Z,52.50
2019-04-05T15:28:54.748Z,54.00
2019-04-05T15:31:25.820Z,52.20
2019-04-05T15:33:52.658Z,48.97
2019-04-05T15:36:21.488Z,50.97
2019-04-05T15:38:50.354Z,49.73
2019-04-05T15:41:19.553Z,52.20
2019-04-05T15:43:48.404Z,49.60
2019-04-05T15:46:17.820Z,54.27
2019-04-05T15:48:46.658Z,53.03
2019-04-05T15:51:16.121Z,52.43
2019-04-05T15:53:45.082Z,53.37
2019-04-05T15:56:13.935Z,53.50
2019-04-05T15:58:43.301Z,51.20
2019-04-05T16:01:12.135Z,52.17
2019-04-05T16:03:41.626Z,47.40
2019-04-05T16:06:10.438Z,49.80
2019-04-05T16:08:39.237Z,53.33
2019-04-05T16:11:08.397Z,52.27
2019-04-05T16:13:37.537Z,52.70
2019-04-05T16:16:06.283Z,52.10
2019-04-05T16:18:35.008Z,41.73
2019-04-05T16:21:03.841Z,40.90
2019-04-05T16:23:32.581Z,51.93
2019-04-05T16:26:01.412Z,50.00
2019-04-05T16:28:30.169Z,48.57
2019-04-05T16:30:59.144Z,43.10
2019-04-05T16:33:27.969Z,47.57
2019-04-05T16:35:56.824Z,52.73
2019-04-05T16:38:25.732Z,49.43
2019-04-05T16:40:54.761Z,43.03
2019-04-05T16:43:24.169Z,51.00
2019-04-05T16:45:53.267Z,48.37
2019-04-05T16:48:22.704Z,45.67
2019-04-05T16:50:51.524Z,51.40
2019-04-05T16:53:20.277Z,46.97
2019-04-05T16:55:49.073Z,49.23
2019-04-05T16:58:22.246Z,46.47
2019-04-05T17:00:55.791Z,53.70
2019-04-05T17:03:25.378Z,48.30
2019-04-05T17:05:54.607Z,46.40
2019-04-05T17:08:23.425Z,45.93
2019-04-05T17:10:52.537Z,51.33
2019-04-05T17:13:21.500Z,51.73
2019-04-05T17:15:50.311Z,48.77
2019-04-05T17:18:21.226Z,50.10
2019-04-05T17:20:50.027Z,45.60
2019-04-05T17:23:20.930Z,50.73
2019-04-05T17:25:49.694Z,47.97
2019-04-05T17:28:19.277Z,47.57
2019-04-05T17:30:48.148Z,51.83
2019-04-05T17:33:17.646Z,51.37
2019-04-05T17:35:46.478Z,47.03
2019-04-05T17:38:15.337Z,51.43
2019-04-05T17:40:44.317Z,54.00
2019-04-05T17:43:13.086Z,56.77
2019-04-05T17:45:42.184Z,52.63
2019-04-05T17:48:11.235Z,52.33
2019-04-05T17:50:40.189Z,52.43
2019-04-05T17:53:13.406Z,52.30
2019-04-05T17:55:40.458Z,52.27
2019-04-05T17:58:09.878Z,55.23
2019-04-05T18:00:39.005Z,51.37
2019-04-05T18:03:08.502Z,52.40
2019-04-05T18:05:37.741Z,54.20
2019-04-05T18:08:06.893Z,55.03
2019-04-05T18:10:36.801Z,55.03
2019-04-05T18:13:05.865Z,70.70
2019-04-05T18:15:35.152Z,54.47
2019-04-05T18:18:05.635Z,48.27
2019-04-05T18:20:35.394Z,52.43
2019-04-05T18:23:04.426Z,51.93
2019-04-05T18:25:33.610Z,54.13
2019-04-05T18:28:02.601Z,55.33
2019-04-05T18:30:32.367Z,54.00
2019-04-05T18:33:01.586Z,54.70
2019-04-05T18:35:31.728Z,55.23
2019-04-05T18:38:02.342Z,52.93
2019-04-05T18:40:40.027Z,56.40
2019-04-05T18:43:05.784Z,54.90
2019-04-05T18:45:36.833Z,53.23
2019-04-05T18:48:05.774Z,45.47
2019-04-05T18:50:35.562Z,49.87
2019-04-05T18:53:04.591Z,56.30
2019-04-05T18:55:33.751Z,53.50
2019-04-05T18:58:05.940Z,52.37
2019-04-05T19:00:35.179Z,54.87
2019-04-05T19:03:04.408Z,56.33
2019-04-05T19:05:33.765Z,54.70
2019-04-05T19:08:03.658Z,53.67
2019-04-05T19:10:37.296Z,52.67
2019-04-05T19:13:07.041Z,54.43
2019-04-05T19:15:35.956Z,50.67
2019-04-05T19:18:05.176Z,47.33
2019-04-05T19:20:36.830Z,55.27
2019-04-05T19:23:05.025Z,53.77
2019-04-05T19:25:34.177Z,52.73
2019-04-05T19:28:03.407Z,50.17
2019-04-05T19:50:39.622Z,52.00
2019-04-05T19:53:08.756Z,36.70
2019-04-05T19:55:39.674Z,57.43
2019-04-05T19:58:08.835Z,42.67
2019-04-05T20:00:39.070Z,30.00
2019-04-05T20:03:08.714Z,55.93
2019-04-05T20:05:37.815Z,33.20
2019-04-05T20:08:07.255Z,54.93
2019-04-05T20:10:37.163Z,45.77
2019-04-05T20:13:06.502Z,56.50
2019-04-05T20:15:35.619Z,49.97
2019-04-05T20:18:05.491Z,54.17
2019-04-05T20:20:35.492Z,47.43
2019-04-05T20:23:04.733Z,44.00
2019-04-05T20:25:34.508Z,54.00
2019-04-05T20:28:03.729Z,52.70
2019-04-05T20:30:33.358Z,44.27
2019-04-05T20:33:02.378Z,52.70
2019-04-05T20:35:31.512Z,52.47
2019-04-05T20:38:00.391Z,56.30
2019-04-05T20:40:29.494Z,52.77
2019-04-05T20:42:59.936Z,46.20
2019-04-05T20:45:31.157Z,54.80
2019-04-05T20:48:01.932Z,54.53
2019-04-05T20:50:34.257Z,48.63
2019-04-05T20:53:03.068Z,43.20
2019-04-05T20:55:31.907Z,55.83
2019-04-05T20:58:01.377Z,50.23
2019-04-05T21:00:30.254Z,40.70
2019-04-05T21:03:00.650Z,54.53
2019-04-05T21:05:29.520Z,28.77
2019-04-05T21:07:58.390Z,52.17
2019-04-05T21:10:27.671Z,56.97
2019-04-05T21:12:56.790Z,53.87
2019-04-05T21:15:26.103Z,56.80
2019-04-05T21:17:55.601Z,56.57
2019-04-05T21:20:24.391Z,54.73
2019-04-05T21:22:53.087Z,42.17
2019-04-05T21:25:21.892Z,56.37
2019-04-05T21:27:51.023Z,50.43
2019-04-05T21:30:19.840Z,48.60
2019-04-05T21:32:48.943Z,46.97
2019-04-05T21:35:17.733Z,53.37
2019-04-05T21:37:46.435Z,55.90
2019-04-05T21:40:15.211Z,53.80
2019-04-05T21:42:43.996Z,61.50
2019-04-05T21:45:12.726Z,55.87
2019-04-05T21:47:41.883Z,61.40
2019-04-05T21:50:10.868Z,53.90
2019-04-05T21:52:39.618Z,54.83
2019-04-05T21:55:08.343Z,60.73
2019-04-05T21:57:37.222Z,62.80
2019-04-05T22:00:07.734Z,56.47
2019-04-05T22:02:36.518Z,62.40
2019-04-05T22:05:05.929Z,63.43
2019-04-05T22:07:34.828Z,58.43
2019-04-05T22:10:03.634Z,64.37
2019-04-05T22:12:32.499Z,62.43
2019-04-05T22:15:01.223Z,57.03
2019-04-05T22:17:30.087Z,63.63
2019-04-05T22:19:58.905Z,65.30
2019-04-05T22:22:27.604Z,64.83
2019-04-05T22:24:59.454Z,65.03
2019-04-05T22:27:26.805Z,63.07
2019-04-05T22:29:55.505Z,66.03
2019-04-05T22:32:24.810Z,53.93
2019-04-05T22:34:54.022Z,68.87
2019-04-05T22:37:22.720Z,68.97
2019-04-05T22:39:51.407Z,71.23
2019-04-05T22:42:21.953Z,71.17
2019-04-05T22:44:50.735Z,67.17
2019-04-05T22:47:19.434Z,70.83
2019-04-05T22:49:48.100Z,59.43
2019-04-05T22:52:16.748Z,69.00
2019-04-05T22:54:47.361Z,57.80
2019-04-05T22:57:15.985Z,69.03
2019-04-05T22:59:44.744Z,70.30
2019-04-05T23:02:14.020Z,72.70
2019-04-05T23:04:43.240Z,60.53
2019-04-05T23:07:11.936Z,61.30
2019-04-05T23:09:40.724Z,63.90
2019-04-05T23:12:09.367Z,70.30
2019-04-05T23:14:38.082Z,67.40
2019-04-05T23:17:07.284Z,76.83
2019-04-05T23:19:35.978Z,57.83
2019-04-05T23:22:05.144Z,67.10
2019-04-05T23:24:33.975Z,67.93
2019-04-05T23:27:03.195Z,69.30
2019-04-05T23:29:32.042Z,63.73
2019-04-05T23:32:00.915Z,71.80
2019-04-05T23:34:29.659Z,74.37
2019-04-05T23:36:58.448Z,67.33
2019-04-05T23:39:27.788Z,65.97
2019-04-05T23:41:56.485Z,66.90
2019-04-05T23:44:25.371Z,64.00
2019-04-05T23:46:54.179Z,73.93
2019-04-05T23:49:23.014Z,68.60
2019-04-05T23:51:51.777Z,71.00
2019-04-05T23:54:21.582Z,64.33
2019-04-05T23:56:50.551Z,66.67
2019-04-05T23:59:19.301Z,64.30
